sensor_id;sensor_type;location;lat;lon;timestamp;temperature;humidity
7934;DHT22;4012;48.896;9.192;2022-08-21T00:01:35;18.00;99.90
7934;DHT22;4012;48.896;9.192;2022-08-21T00:04:05;18.00;99.90
7934;DHT22;4012;48.896;9.192;2022-08-21T00:06:31;18.10;99.90
7934;DHT22;4012;48.896;9.192;2022-08-21T00:09:02;18.20;99.90
7934;DHT22;4012;48.896;9.192;2022-08-21T00:11:28;18.20;99.90
7934;DHT22;4012;48.896;9.192;2022-08-21T00:13:54;18.20;99.90
7934;DHT22;4012;48.896;9.192;2022-08-21T00:16:20;18.20;99.90
7934;DHT22;4012;48.896;9.192;2022-08-21T00:18:46;18.10;99.90
7934;DHT22;4012;48.896;9.192;2022-08-21T00:21:13;18.10;99.90
7934;DHT22;4012;48.896;9.192;2022-08-21T00:23:39;18.00;99.90
7934;DHT22;4012;48.896;9.192;2022-08-21T00:26:05;18.00;99.90
7934;DHT22;4012;48.896;9.192;2022-08-21T00:28:31;18.00;99.90
7934;DHT22;4012;48.896;9.192;2022-08-21T00:30:57;18.00;99.90
7934;DHT22;4012;48.896;9.192;2022-08-21T00:33:24;17.90;99.90
7934;DHT22;4012;48.896;9.192;2022-08-21T00:35:50;18.00;99.90
7934;DHT22;4012;48.896;9.192;2022-08-21T00:38:16;17.90;99.90
7934;DHT22;4012;48.896;9.192;2022-08-21T00:40:50;17.90;99.90
7934;DHT22;4012;48.896;9.192;2022-08-21T00:43:20;17.90;99.90
7934;DHT22;4012;48.896;9.192;2022-08-21T00:45:47;17.90;99.90
7934;DHT22;4012;48.896;9.192;2022-08-21T00:48:13;17.80;99.90
7934;DHT22;4012;48.896;9.192;2022-08-21T00:50:44;17.80;99.90
7934;DHT22;4012;48.896;9.192;2022-08-21T00:53:11;17.80;99.90
7934;DHT22;4012;48.896;9.192;2022-08-21T00:55:39;17.70;99.90
7934;DHT22;4012;48.896;9.192;2022-08-21T00:58:07;17.70;99.90
7934;DHT22;4012;48.896;9.192;2022-08-21T01:00:36;17.60;99.90
7934;DHT22;4012;48.896;9.192;2022-08-21T01:03:07;17.60;99.90
7934;DHT22;4012;48.896;9.192;2022-08-21T01:05:33;17.60;99.90
7934;DHT22;4012;48.896;9.192;2022-08-21T01:07:59;17.60;99.90
7934;DHT22;4012;48.896;9.192;2022-08-21T01:10:25;17.60;99.90
7934;DHT22;4012;48.896;9.192;2022-08-21T01:12:53;17.60;99.90
7934;DHT22;4012;48.896;9.192;2022-08-21T01:15:22;17.50;99.90
7934;DHT22;4012;48.896;9.192;2022-08-21T01:17:49;17.60;99.90
7934;DHT22;4012;48.896;9.192;2022-08-21T01:20:15;17.50;99.90
7934;DHT22;4012;48.896;9.192;2022-08-21T01:22:41;17.50;99.90
7934;DHT22;4012;48.896;9.192;2022-08-21T01:25:08;17.50;99.90
7934;DHT22;4012;48.896;9.192;2022-08-21T01:27:34;17.50;99.90
7934;DHT22;4012;48.896;9.192;2022-08-21T01:30:14;17.50;99.90
7934;DHT22;4012;48.896;9.192;2022-08-21T01:32:40;17.50;99.90
7934;DHT22;4012;48.896;9.192;2022-08-21T01:35:07;17.50;99.90
7934;DHT22;4012;48.896;9.192;2022-08-21T01:37:33;17.50;99.90
7934;DHT22;4012;48.896;9.192;2022-08-21T01:39:58;17.50;99.90
7934;DHT22;4012;48.896;9.192;2022-08-21T01:42:25;17.50;99.90
7934;DHT22;4012;48.896;9.192;2022-08-21T01:44:50;17.40;99.90
7934;DHT22;4012;48.896;9.192;2022-08-21T01:47:16;17.40;99.90
7934;DHT22;4012;48.896;9.192;2022-08-21T01:49:44;17.30;99.90
7934;DHT22;4012;48.896;9.192;2022-08-21T01:52:10;17.20;99.90
7934;DHT22;4012;48.896;9.192;2022-08-21T01:54:37;17.10;99.90
7934;DHT22;4012;48.896;9.192;2022-08-21T01:57:03;16.80;99.90
7934;DHT22;4012;48.896;9.192;2022-08-21T01:59:30;16.70;99.90
7934;DHT22;4012;48.896;9.192;2022-08-21T02:01:56;16.70;99.90
7934;DHT22;4012;48.896;9.192;2022-08-21T02:04:22;16.70;99.90
7934;DHT22;4012;48.896;9.192;2022-08-21T02:06:48;16.60;99.90
7934;DHT22;4012;48.896;9.192;2022-08-21T02:09:14;16.60;99.90
7934;DHT22;4012;48.896;9.192;2022-08-21T02:11:40;16.70;99.90
7934;DHT22;4012;48.896;9.192;2022-08-21T02:14:08;16.70;99.90
7934;DHT22;4012;48.896;9.192;2022-08-21T02:16:34;16.60;99.90
7934;DHT22;4012;48.896;9.192;2022-08-21T02:19:00;16.60;99.90
7934;DHT22;4012;48.896;9.192;2022-08-21T02:21:26;16.50;99.90
7934;DHT22;4012;48.896;9.192;2022-08-21T02:23:52;16.40;99.90
7934;DHT22;4012;48.896;9.192;2022-08-21T02:26:17;16.40;99.90
7934;DHT22;4012;48.896;9.192;2022-08-21T02:28:43;16.20;99.90
7934;DHT22;4012;48.896;9.192;2022-08-21T02:31:09;16.10;99.90
7934;DHT22;4012;48.896;9.192;2022-08-21T02:33:35;16.10;99.90
7934;DHT22;4012;48.896;9.192;2022-08-21T02:36:02;16.10;99.90
7934;DHT22;4012;48.896;9.192;2022-08-21T02:38:30;16.20;99.90
7934;DHT22;4012;48.896;9.192;2022-08-21T02:40:57;16.20;99.90
7934;DHT22;4012;48.896;9.192;2022-08-21T02:43:25;16.30;99.90
7934;DHT22;4012;48.896;9.192;2022-08-21T02:45:52;16.30;99.90
7934;DHT22;4012;48.896;9.192;2022-08-21T02:48:21;16.40;99.90
7934;DHT22;4012;48.896;9.192;2022-08-21T02:50:56;16.40;99.90
7934;DHT22;4012;48.896;9.192;2022-08-21T02:53:22;16.50;99.90
7934;DHT22;4012;48.896;9.192;2022-08-21T02:55:50;16.50;99.90
7934;DHT22;4012;48.896;9.192;2022-08-21T02:58:22;16.40;99.90
7934;DHT22;4012;48.896;9.192;2022-08-21T03:00:49;16.40;99.90
7934;DHT22;4012;48.896;9.192;2022-08-21T03:03:15;16.40;99.90
7934;DHT22;4012;48.896;9.192;2022-08-21T03:05:42;16.40;99.90
7934;DHT22;4012;48.896;9.192;2022-08-21T03:08:11;16.30;99.90
7934;DHT22;4012;48.896;9.192;2022-08-21T03:10:39;16.30;99.90
7934;DHT22;4012;48.896;9.192;2022-08-21T03:13:07;16.30;99.90
7934;DHT22;4012;48.896;9.192;2022-08-21T03:15:33;16.20;99.90
7934;DHT22;4012;48.896;9.192;2022-08-21T03:17:59;16.20;99.90
7934;DHT22;4012;48.896;9.192;2022-08-21T03:20:27;16.20;99.90
7934;DHT22;4012;48.896;9.192;2022-08-21T03:22:54;16.20;99.90
7934;DHT22;4012;48.896;9.192;2022-08-21T03:25:21;16.20;99.90
7934;DHT22;4012;48.896;9.192;2022-08-21T03:27:48;16.20;99.90
7934;DHT22;4012;48.896;9.192;2022-08-21T03:30:18;16.10;99.90
7934;DHT22;4012;48.896;9.192;2022-08-21T03:32:45;16.00;99.90
7934;DHT22;4012;48.896;9.192;2022-08-21T03:35:12;15.80;99.90
7934;DHT22;4012;48.896;9.192;2022-08-21T03:37:38;15.90;99.90
7934;DHT22;4012;48.896;9.192;2022-08-21T03:40:06;15.80;99.90
7934;DHT22;4012;48.896;9.192;2022-08-21T03:42:32;15.80;99.90
7934;DHT22;4012;48.896;9.192;2022-08-21T03:44:58;15.80;99.90
7934;DHT22;4012;48.896;9.192;2022-08-21T03:47:24;15.80;99.90
7934;DHT22;4012;48.896;9.192;2022-08-21T03:49:49;15.80;99.90
7934;DHT22;4012;48.896;9.192;2022-08-21T03:52:15;15.80;99.90
7934;DHT22;4012;48.896;9.192;2022-08-21T03:54:42;15.80;99.90
7934;DHT22;4012;48.896;9.192;2022-08-21T03:57:08;15.90;99.90
7934;DHT22;4012;48.896;9.192;2022-08-21T03:59:35;15.80;99.90
7934;DHT22;4012;48.896;9.192;2022-08-21T04:02:03;15.80;99.90
7934;DHT22;4012;48.896;9.192;2022-08-21T04:04:29;15.80;99.90
7934;DHT22;4012;48.896;9.192;2022-08-21T04:06:56;15.70;99.90
7934;DHT22;4012;48.896;9.192;2022-08-21T04:09:23;15.70;99.90
7934;DHT22;4012;48.896;9.192;2022-08-21T04:11:49;15.70;99.90
7934;DHT22;4012;48.896;9.192;2022-08-21T04:14:15;15.70;99.90
7934;DHT22;4012;48.896;9.192;2022-08-21T04:16:42;15.60;99.90
7934;DHT22;4012;48.896;9.192;2022-08-21T04:19:08;15.60;99.90
7934;DHT22;4012;48.896;9.192;2022-08-21T04:21:36;15.60;99.90
7934;DHT22;4012;48.896;9.192;2022-08-21T04:24:02;15.50;99.90
7934;DHT22;4012;48.896;9.192;2022-08-21T04:26:29;15.50;99.90
7934;DHT22;4012;48.896;9.192;2022-08-21T04:28:56;15.50;99.90
7934;DHT22;4012;48.896;9.192;2022-08-21T04:31:23;15.50;99.90
7934;DHT22;4012;48.896;9.192;2022-08-21T04:33:49;15.50;99.90
7934;DHT22;4012;48.896;9.192;2022-08-21T04:36:15;15.50;99.90
7934;DHT22;4012;48.896;9.192;2022-08-21T04:38:41;15.50;99.90
7934;DHT22;4012;48.896;9.192;2022-08-21T04:41:07;15.50;99.90
7934;DHT22;4012;48.896;9.192;2022-08-21T04:43:32;15.50;99.90
7934;DHT22;4012;48.896;9.192;2022-08-21T04:45:58;15.50;99.90
7934;DHT22;4012;48.896;9.192;2022-08-21T04:48:25;15.40;99.90
7934;DHT22;4012;48.896;9.192;2022-08-21T04:50:58;15.50;99.90
7934;DHT22;4012;48.896;9.192;2022-08-21T04:53:41;15.50;99.90
7934;DHT22;4012;48.896;9.192;2022-08-21T04:56:14;15.50;99.90
7934;DHT22;4012;48.896;9.192;2022-08-21T04:58:41;15.50;99.90
7934;DHT22;4012;48.896;9.192;2022-08-21T05:01:13;15.60;99.90
7934;DHT22;4012;48.896;9.192;2022-08-21T05:03:40;15.60;99.90
7934;DHT22;4012;48.896;9.192;2022-08-21T05:06:09;15.70;99.90
7934;DHT22;4012;48.896;9.192;2022-08-21T05:08:38;15.70;99.90
7934;DHT22;4012;48.896;9.192;2022-08-21T05:11:05;15.80;99.90
7934;DHT22;4012;48.896;9.192;2022-08-21T05:13:32;15.90;99.90
7934;DHT22;4012;48.896;9.192;2022-08-21T05:15:57;15.90;99.90
7934;DHT22;4012;48.896;9.192;2022-08-21T05:18:24;16.00;99.90
7934;DHT22;4012;48.896;9.192;2022-08-21T05:20:49;16.00;99.90
7934;DHT22;4012;48.896;9.192;2022-08-21T05:23:16;16.10;99.90
7934;DHT22;4012;48.896;9.192;2022-08-21T05:25:42;16.20;99.90
7934;DHT22;4012;48.896;9.192;2022-08-21T05:28:09;16.20;99.90
7934;DHT22;4012;48.896;9.192;2022-08-21T05:30:37;16.30;99.90
7934;DHT22;4012;48.896;9.192;2022-08-21T05:33:04;16.40;99.90
7934;DHT22;4012;48.896;9.192;2022-08-21T05:35:31;16.40;99.90
7934;DHT22;4012;48.896;9.192;2022-08-21T05:37:58;16.40;99.90
7934;DHT22;4012;48.896;9.192;2022-08-21T05:40:24;16.50;99.90
7934;DHT22;4012;48.896;9.192;2022-08-21T05:42:51;16.60;99.90
7934;DHT22;4012;48.896;9.192;2022-08-21T05:45:17;16.60;99.90
7934;DHT22;4012;48.896;9.192;2022-08-21T05:47:43;16.60;99.90
7934;DHT22;4012;48.896;9.192;2022-08-21T05:50:09;16.60;99.90
7934;DHT22;4012;48.896;9.192;2022-08-21T05:52:35;16.60;99.90
7934;DHT22;4012;48.896;9.192;2022-08-21T05:55:00;16.70;99.90
7934;DHT22;4012;48.896;9.192;2022-08-21T05:57:26;16.80;99.90
7934;DHT22;4012;48.896;9.192;2022-08-21T05:59:51;16.80;99.90
7934;DHT22;4012;48.896;9.192;2022-08-21T06:02:19;16.80;99.90
7934;DHT22;4012;48.896;9.192;2022-08-21T06:04:45;16.90;99.90
7934;DHT22;4012;48.896;9.192;2022-08-21T06:07:11;16.90;99.90
7934;DHT22;4012;48.896;9.192;2022-08-21T06:09:37;16.90;99.90
7934;DHT22;4012;48.896;9.192;2022-08-21T06:12:09;17.10;99.90
7934;DHT22;4012;48.896;9.192;2022-08-21T06:14:37;17.10;99.90
7934;DHT22;4012;48.896;9.192;2022-08-21T06:17:12;17.20;99.90
7934;DHT22;4012;48.896;9.192;2022-08-21T06:19:38;17.30;99.90
7934;DHT22;4012;48.896;9.192;2022-08-21T06:22:04;17.50;99.90
7934;DHT22;4012;48.896;9.192;2022-08-21T06:24:30;17.60;99.90
7934;DHT22;4012;48.896;9.192;2022-08-21T06:26:56;17.70;99.90
7934;DHT22;4012;48.896;9.192;2022-08-21T06:29:22;17.90;99.90
7934;DHT22;4012;48.896;9.192;2022-08-21T06:31:50;17.90;99.90
7934;DHT22;4012;48.896;9.192;2022-08-21T06:34:17;18.00;99.90
7934;DHT22;4012;48.896;9.192;2022-08-21T06:36:43;18.20;99.90
7934;DHT22;4012;48.896;9.192;2022-08-21T06:39:09;18.30;99.90
7934;DHT22;4012;48.896;9.192;2022-08-21T06:41:35;18.40;99.90
7934;DHT22;4012;48.896;9.192;2022-08-21T06:44:00;18.40;99.90
7934;DHT22;4012;48.896;9.192;2022-08-21T06:46:29;19.40;99.90
7934;DHT22;4012;48.896;9.192;2022-08-21T06:48:55;21.90;99.90
7934;DHT22;4012;48.896;9.192;2022-08-21T06:51:22;24.50;99.90
7934;DHT22;4012;48.896;9.192;2022-08-21T06:53:48;25.50;99.90
7934;DHT22;4012;48.896;9.192;2022-08-21T06:56:14;27.80;99.90
7934;DHT22;4012;48.896;9.192;2022-08-21T06:58:39;28.50;99.90
7934;DHT22;4012;48.896;9.192;2022-08-21T07:01:05;30.20;99.90
7934;DHT22;4012;48.896;9.192;2022-08-21T07:03:33;30.80;99.90
7934;DHT22;4012;48.896;9.192;2022-08-21T07:05:59;31.90;99.90
7934;DHT22;4012;48.896;9.192;2022-08-21T07:08:26;32.00;99.90
7934;DHT22;4012;48.896;9.192;2022-08-21T07:10:53;31.50;99.90
7934;DHT22;4012;48.896;9.192;2022-08-21T07:13:20;30.40;99.90
7934;DHT22;4012;48.896;9.192;2022-08-21T07:15:45;31.30;99.90
7934;DHT22;4012;48.896;9.192;2022-08-21T07:18:11;33.00;99.90
7934;DHT22;4012;48.896;9.192;2022-08-21T07:20:39;32.30;99.90
7934;DHT22;4012;48.896;9.192;2022-08-21T07:23:07;31.60;99.90
7934;DHT22;4012;48.896;9.192;2022-08-21T07:25:34;30.30;99.90
7934;DHT22;4012;48.896;9.192;2022-08-21T07:28:00;29.30;99.90
7934;DHT22;4012;48.896;9.192;2022-08-21T07:30:26;31.20;99.90
7934;DHT22;4012;48.896;9.192;2022-08-21T07:32:51;31.80;99.90
7934;DHT22;4012;48.896;9.192;2022-08-21T07:35:19;31.50;99.90
7934;DHT22;4012;48.896;9.192;2022-08-21T07:37:45;32.20;99.90
7934;DHT22;4012;48.896;9.192;2022-08-21T07:40:11;30.80;99.90
7934;DHT22;4012;48.896;9.192;2022-08-21T07:42:42;29.70;99.90
7934;DHT22;4012;48.896;9.192;2022-08-21T07:45:08;28.50;99.90
7934;DHT22;4012;48.896;9.192;2022-08-21T07:47:34;29.70;99.90
7934;DHT22;4012;48.896;9.192;2022-08-21T07:50:00;31.10;99.90
7934;DHT22;4012;48.896;9.192;2022-08-21T07:52:26;30.50;99.90
7934;DHT22;4012;48.896;9.192;2022-08-21T07:54:51;29.40;99.90
7934;DHT22;4012;48.896;9.192;2022-08-21T07:57:17;31.30;99.90
7934;DHT22;4012;48.896;9.192;2022-08-21T07:59:43;33.00;99.90
7934;DHT22;4012;48.896;9.192;2022-08-21T08:02:08;32.20;99.90
7934;DHT22;4012;48.896;9.192;2022-08-21T08:04:34;32.10;99.90
7934;DHT22;4012;48.896;9.192;2022-08-21T08:07:00;32.30;99.90
7934;DHT22;4012;48.896;9.192;2022-08-21T08:09:25;33.50;99.90
7934;DHT22;4012;48.896;9.192;2022-08-21T08:11:51;33.70;99.90
7934;DHT22;4012;48.896;9.192;2022-08-21T08:14:16;33.90;99.90
7934;DHT22;4012;48.896;9.192;2022-08-21T08:16:42;32.90;99.90
7934;DHT22;4012;48.896;9.192;2022-08-21T08:19:08;32.90;99.90
7934;DHT22;4012;48.896;9.192;2022-08-21T08:21:34;32.90;99.90
7934;DHT22;4012;48.896;9.192;2022-08-21T08:24:00;32.40;99.90
7934;DHT22;4012;48.896;9.192;2022-08-21T08:26:26;32.40;99.90
7934;DHT22;4012;48.896;9.192;2022-08-21T08:28:52;33.20;99.90
7934;DHT22;4012;48.896;9.192;2022-08-21T08:31:18;32.90;99.90
7934;DHT22;4012;48.896;9.192;2022-08-21T08:33:44;34.10;99.90
7934;DHT22;4012;48.896;9.192;2022-08-21T08:36:15;34.40;99.90
7934;DHT22;4012;48.896;9.192;2022-08-21T08:38:40;35.00;99.90
7934;DHT22;4012;48.896;9.192;2022-08-21T08:41:18;35.70;99.70
7934;DHT22;4012;48.896;9.192;2022-08-21T08:43:55;34.60;98.60
7934;DHT22;4012;48.896;9.192;2022-08-21T08:46:34;33.30;99.70
7934;DHT22;4012;48.896;9.192;2022-08-21T08:49:11;31.80;99.90
7934;DHT22;4012;48.896;9.192;2022-08-21T08:51:57;31.60;99.90
7934;DHT22;4012;48.896;9.192;2022-08-21T08:54:33;32.80;99.90
7934;DHT22;4012;48.896;9.192;2022-08-21T08:57:02;33.10;99.80
7934;DHT22;4012;48.896;9.192;2022-08-21T08:59:48;34.00;99.00
7934;DHT22;4012;48.896;9.192;2022-08-21T09:02:15;33.80;98.10
7934;DHT22;4012;48.896;9.192;2022-08-21T09:04:42;35.60;97.50
7934;DHT22;4012;48.896;9.192;2022-08-21T09:07:19;35.80;95.90
7934;DHT22;4012;48.896;9.192;2022-08-21T09:09:51;34.40;95.00
7934;DHT22;4012;48.896;9.192;2022-08-21T09:15:32;32.80;96.30
7934;DHT22;4012;48.896;9.192;2022-08-21T09:21:24;35.30;93.70
7934;DHT22;4012;48.896;9.192;2022-08-21T09:24:00;35.10;93.20
7934;DHT22;4012;48.896;9.192;2022-08-21T09:27:04;36.80;91.60
7934;DHT22;4012;48.896;9.192;2022-08-21T09:29:24;36.90;91.20
7934;DHT22;4012;48.896;9.192;2022-08-21T09:31:51;33.60;93.10
7934;DHT22;4012;48.896;9.192;2022-08-21T09:34:29;32.80;94.00
7934;DHT22;4012;48.896;9.192;2022-08-21T09:36:56;32.40;94.80
7934;DHT22;4012;48.896;9.192;2022-08-21T09:39:40;33.80;93.70
7934;DHT22;4012;48.896;9.192;2022-08-21T09:42:09;35.70;92.80
7934;DHT22;4012;48.896;9.192;2022-08-21T09:44:40;34.40;92.00
7934;DHT22;4012;48.896;9.192;2022-08-21T09:47:10;33.20;92.50
7934;DHT22;4012;48.896;9.192;2022-08-21T09:49:40;32.60;93.70
7934;DHT22;4012;48.896;9.192;2022-08-21T09:52:26;33.90;92.70
7934;DHT22;4012;48.896;9.192;2022-08-21T09:54:54;34.50;91.90
7934;DHT22;4012;48.896;9.192;2022-08-21T09:57:25;33.90;93.00
7934;DHT22;4012;48.896;9.192;2022-08-21T10:02:48;34.30;91.60
7934;DHT22;4012;48.896;9.192;2022-08-21T10:07:42;33.50;92.40
7934;DHT22;4012;48.896;9.192;2022-08-21T10:10:29;33.40;92.40
7934;DHT22;4012;48.896;9.192;2022-08-21T10:13:04;33.90;92.00
7934;DHT22;4012;48.896;9.192;2022-08-21T10:18:49;33.70;90.40
7934;DHT22;4012;48.896;9.192;2022-08-21T10:21:27;34.50;90.80
7934;DHT22;4012;48.896;9.192;2022-08-21T10:26:54;34.50;90.40
7934;DHT22;4012;48.896;9.192;2022-08-21T10:29:32;33.20;90.00
7934;DHT22;4012;48.896;9.192;2022-08-21T10:35:08;33.40;90.60
7934;DHT22;4012;48.896;9.192;2022-08-21T10:40:21;30.70;92.90
7934;DHT22;4012;48.896;9.192;2022-08-21T10:48:31;31.30;92.40
7934;DHT22;4012;48.896;9.192;2022-08-21T10:51:09;32.70;91.10
7934;DHT22;4012;48.896;9.192;2022-08-21T10:56:17;32.20;91.00
7934;DHT22;4012;48.896;9.192;2022-08-21T11:06:47;29.30;94.20
7934;DHT22;4012;48.896;9.192;2022-08-21T11:09:17;29.40;93.60
7934;DHT22;4012;48.896;9.192;2022-08-21T11:11:50;28.90;94.20
7934;DHT22;4012;48.896;9.192;2022-08-21T11:14:31;28.80;94.70
7934;DHT22;4012;48.896;9.192;2022-08-21T11:17:11;28.80;94.70
7934;DHT22;4012;48.896;9.192;2022-08-21T11:19:45;29.10;94.80
7934;DHT22;4012;48.896;9.192;2022-08-21T11:22:33;28.00;94.30
7934;DHT22;4012;48.896;9.192;2022-08-21T11:25:08;28.40;94.90
7934;DHT22;4012;48.896;9.192;2022-08-21T11:27:56;28.30;94.10
7934;DHT22;4012;48.896;9.192;2022-08-21T11:30:30;28.80;94.30
7934;DHT22;4012;48.896;9.192;2022-08-21T11:33:16;28.00;95.20
7934;DHT22;4012;48.896;9.192;2022-08-21T11:35:56;28.50;95.60
7934;DHT22;4012;48.896;9.192;2022-08-21T11:38:46;27.60;95.80
7934;DHT22;4012;48.896;9.192;2022-08-21T11:41:24;27.60;95.50
7934;DHT22;4012;48.896;9.192;2022-08-21T11:52:03;28.20;95.30
7934;DHT22;4012;48.896;9.192;2022-08-21T11:55:11;27.60;94.80
7934;DHT22;4012;48.896;9.192;2022-08-21T11:58:16;26.90;95.30
7934;DHT22;4012;48.896;9.192;2022-08-21T12:00:49;27.20;94.80
7934;DHT22;4012;48.896;9.192;2022-08-21T12:03:25;27.80;95.10
7934;DHT22;4012;48.896;9.192;2022-08-21T12:05:57;28.10;94.20
7934;DHT22;4012;48.896;9.192;2022-08-21T12:16:35;27.70;93.90
7934;DHT22;4012;48.896;9.192;2022-08-21T12:19:09;27.20;94.60
7934;DHT22;4012;48.896;9.192;2022-08-21T12:24:47;27.30;94.70
7934;DHT22;4012;48.896;9.192;2022-08-21T12:27:51;27.40;93.80
7934;DHT22;4012;48.896;9.192;2022-08-21T12:32:58;27.40;92.60
7934;DHT22;4012;48.896;9.192;2022-08-21T12:35:39;27.20;93.80
7934;DHT22;4012;48.896;9.192;2022-08-21T12:38:14;27.10;93.80
7934;DHT22;4012;48.896;9.192;2022-08-21T12:40:48;27.10;93.20
7934;DHT22;4012;48.896;9.192;2022-08-21T12:43:20;27.30;93.00
7934;DHT22;4012;48.896;9.192;2022-08-21T12:45:49;27.80;92.90
7934;DHT22;4012;48.896;9.192;2022-08-21T12:48:39;28.00;92.10
7934;DHT22;4012;48.896;9.192;2022-08-21T12:51:14;27.80;92.50
7934;DHT22;4012;48.896;9.192;2022-08-21T12:53:44;27.40;93.10
7934;DHT22;4012;48.896;9.192;2022-08-21T12:56:19;27.40;92.00
7934;DHT22;4012;48.896;9.192;2022-08-21T12:58:51;27.80;91.90
7934;DHT22;4012;48.896;9.192;2022-08-21T13:01:33;27.90;91.60
7934;DHT22;4012;48.896;9.192;2022-08-21T13:04:03;27.90;92.20
7934;DHT22;4012;48.896;9.192;2022-08-21T13:06:32;27.80;91.60
7934;DHT22;4012;48.896;9.192;2022-08-21T13:09:06;27.80;92.00
7934;DHT22;4012;48.896;9.192;2022-08-21T13:11:33;27.80;92.00
7934;DHT22;4012;48.896;9.192;2022-08-21T13:14:01;27.90;92.10
7934;DHT22;4012;48.896;9.192;2022-08-21T13:16:28;28.00;91.90
7934;DHT22;4012;48.896;9.192;2022-08-21T13:21:29;27.90;91.70
7934;DHT22;4012;48.896;9.192;2022-08-21T13:24:15;28.30;91.50
7934;DHT22;4012;48.896;9.192;2022-08-21T13:26:45;28.80;91.10
7934;DHT22;4012;48.896;9.192;2022-08-21T13:29:13;28.60;91.20
7934;DHT22;4012;48.896;9.192;2022-08-21T13:31:48;28.20;91.20
7934;DHT22;4012;48.896;9.192;2022-08-21T13:34:14;27.90;91.10
7934;DHT22;4012;48.896;9.192;2022-08-21T13:36:41;27.50;91.30
7934;DHT22;4012;48.896;9.192;2022-08-21T13:39:12;27.70;91.30
7934;DHT22;4012;48.896;9.192;2022-08-21T13:41:44;27.40;91.60
7934;DHT22;4012;48.896;9.192;2022-08-21T13:44:39;27.50;91.70
7934;DHT22;4012;48.896;9.192;2022-08-21T13:47:06;27.30;92.10
7934;DHT22;4012;48.896;9.192;2022-08-21T13:49:34;27.70;92.50
7934;DHT22;4012;48.896;9.192;2022-08-21T13:52:02;28.20;92.50
7934;DHT22;4012;48.896;9.192;2022-08-21T13:54:39;28.50;92.40
7934;DHT22;4012;48.896;9.192;2022-08-21T13:57:19;28.50;92.00
7934;DHT22;4012;48.896;9.192;2022-08-21T13:59:49;28.40;91.80
7934;DHT22;4012;48.896;9.192;2022-08-21T14:02:18;28.30;91.90
7934;DHT22;4012;48.896;9.192;2022-08-21T14:05:01;27.90;91.50
7934;DHT22;4012;48.896;9.192;2022-08-21T14:07:33;27.90;91.80
7934;DHT22;4012;48.896;9.192;2022-08-21T14:10:21;28.20;91.50
7934;DHT22;4012;48.896;9.192;2022-08-21T14:12:51;27.90;91.50
7934;DHT22;4012;48.896;9.192;2022-08-21T14:15:22;28.20;91.60
7934;DHT22;4012;48.896;9.192;2022-08-21T14:17:48;28.10;91.20
7934;DHT22;4012;48.896;9.192;2022-08-21T14:20:32;28.20;90.90
7934;DHT22;4012;48.896;9.192;2022-08-21T14:22:58;28.10;90.90
7934;DHT22;4012;48.896;9.192;2022-08-21T14:28:03;27.60;91.10
7934;DHT22;4012;48.896;9.192;2022-08-21T14:30:35;27.20;91.20
7934;DHT22;4012;48.896;9.192;2022-08-21T14:33:02;27.40;91.40
7934;DHT22;4012;48.896;9.192;2022-08-21T14:35:28;27.50;91.40
7934;DHT22;4012;48.896;9.192;2022-08-21T14:37:54;27.30;91.50
7934;DHT22;4012;48.896;9.192;2022-08-21T14:40:22;27.40;91.70
7934;DHT22;4012;48.896;9.192;2022-08-21T14:42:48;27.60;91.40
7934;DHT22;4012;48.896;9.192;2022-08-21T14:45:29;27.70;91.70
7934;DHT22;4012;48.896;9.192;2022-08-21T14:47:56;28.00;91.40
7934;DHT22;4012;48.896;9.192;2022-08-21T14:50:22;28.30;91.50
7934;DHT22;4012;48.896;9.192;2022-08-21T14:52:47;28.50;90.40
7934;DHT22;4012;48.896;9.192;2022-08-21T14:55:14;28.60;90.70
7934;DHT22;4012;48.896;9.192;2022-08-21T14:57:42;28.60;90.70
7934;DHT22;4012;48.896;9.192;2022-08-21T15:00:11;28.70;90.90
7934;DHT22;4012;48.896;9.192;2022-08-21T15:02:38;28.80;91.10
7934;DHT22;4012;48.896;9.192;2022-08-21T15:05:04;28.40;90.70
7934;DHT22;4012;48.896;9.192;2022-08-21T15:07:30;28.10;90.70
7934;DHT22;4012;48.896;9.192;2022-08-21T15:09:56;28.20;91.30
7934;DHT22;4012;48.896;9.192;2022-08-21T15:12:23;27.80;91.00
7934;DHT22;4012;48.896;9.192;2022-08-21T15:14:49;27.90;91.90
7934;DHT22;4012;48.896;9.192;2022-08-21T15:17:14;28.10;91.80
7934;DHT22;4012;48.896;9.192;2022-08-21T15:19:40;28.00;90.90
7934;DHT22;4012;48.896;9.192;2022-08-21T15:22:06;28.00;90.90
7934;DHT22;4012;48.896;9.192;2022-08-21T15:24:32;28.00;91.30
7934;DHT22;4012;48.896;9.192;2022-08-21T15:27:00;28.20;91.20
7934;DHT22;4012;48.896;9.192;2022-08-21T15:29:26;28.10;91.20
7934;DHT22;4012;48.896;9.192;2022-08-21T15:31:55;28.00;91.40
7934;DHT22;4012;48.896;9.192;2022-08-21T15:34:22;27.70;91.00
7934;DHT22;4012;48.896;9.192;2022-08-21T15:36:48;27.60;91.40
7934;DHT22;4012;48.896;9.192;2022-08-21T15:39:14;27.40;91.40
7934;DHT22;4012;48.896;9.192;2022-08-21T15:41:40;27.50;91.60
7934;DHT22;4012;48.896;9.192;2022-08-21T15:44:06;27.30;91.50
7934;DHT22;4012;48.896;9.192;2022-08-21T15:46:32;27.20;91.50
7934;DHT22;4012;48.896;9.192;2022-08-21T15:48:57;27.10;91.30
7934;DHT22;4012;48.896;9.192;2022-08-21T15:51:23;27.10;91.60
7934;DHT22;4012;48.896;9.192;2022-08-21T15:53:49;27.10;91.70
7934;DHT22;4012;48.896;9.192;2022-08-21T15:56:27;27.10;91.70
7934;DHT22;4012;48.896;9.192;2022-08-21T15:58:59;27.00;91.80
7934;DHT22;4012;48.896;9.192;2022-08-21T16:01:25;27.00;91.70
7934;DHT22;4012;48.896;9.192;2022-08-21T16:03:52;26.90;91.80
7934;DHT22;4012;48.896;9.192;2022-08-21T16:06:19;26.90;92.00
7934;DHT22;4012;48.896;9.192;2022-08-21T16:08:45;26.90;91.90
7934;DHT22;4012;48.896;9.192;2022-08-21T16:11:13;27.10;91.90
7934;DHT22;4012;48.896;9.192;2022-08-21T16:13:42;27.10;92.40
7934;DHT22;4012;48.896;9.192;2022-08-21T16:16:11;27.20;92.50
7934;DHT22;4012;48.896;9.192;2022-08-21T16:18:38;27.20;92.40
7934;DHT22;4012;48.896;9.192;2022-08-21T16:21:04;27.00;92.70
7934;DHT22;4012;48.896;9.192;2022-08-21T16:23:30;27.00;92.50
7934;DHT22;4012;48.896;9.192;2022-08-21T16:25:58;27.00;93.00
7934;DHT22;4012;48.896;9.192;2022-08-21T16:28:24;26.90;93.00
7934;DHT22;4012;48.896;9.192;2022-08-21T16:30:50;26.90;93.40
7934;DHT22;4012;48.896;9.192;2022-08-21T16:33:41;26.90;93.00
7934;DHT22;4012;48.896;9.192;2022-08-21T16:36:07;27.00;93.20
7934;DHT22;4012;48.896;9.192;2022-08-21T16:38:35;26.90;93.20
7934;DHT22;4012;48.896;9.192;2022-08-21T16:41:03;26.90;93.20
7934;DHT22;4012;48.896;9.192;2022-08-21T16:43:30;26.80;93.50
7934;DHT22;4012;48.896;9.192;2022-08-21T16:45:56;26.80;94.10
7934;DHT22;4012;48.896;9.192;2022-08-21T16:48:23;26.80;94.60
7934;DHT22;4012;48.896;9.192;2022-08-21T16:50:49;26.80;94.40
7934;DHT22;4012;48.896;9.192;2022-08-21T16:53:15;26.70;94.20
7934;DHT22;4012;48.896;9.192;2022-08-21T16:55:41;26.70;94.20
7934;DHT22;4012;48.896;9.192;2022-08-21T16:58:15;26.70;94.20
7934;DHT22;4012;48.896;9.192;2022-08-21T17:00:42;26.60;94.30
7934;DHT22;4012;48.896;9.192;2022-08-21T17:03:13;26.50;94.30
7934;DHT22;4012;48.896;9.192;2022-08-21T17:05:40;26.50;94.70
7934;DHT22;4012;48.896;9.192;2022-08-21T17:08:06;26.50;94.40
7934;DHT22;4012;48.896;9.192;2022-08-21T17:10:33;26.50;94.80
7934;DHT22;4012;48.896;9.192;2022-08-21T17:12:59;26.50;95.00
7934;DHT22;4012;48.896;9.192;2022-08-21T17:15:31;26.40;94.80
7934;DHT22;4012;48.896;9.192;2022-08-21T17:17:58;26.40;95.10
7934;DHT22;4012;48.896;9.192;2022-08-21T17:20:23;26.30;95.60
7934;DHT22;4012;48.896;9.192;2022-08-21T17:22:50;26.30;95.70